sensor_id;sensor_type;location;lat;lon;timestamp;pressure;altitude;pressure_sealevel;temperature;humidity
6343;BME280;3204;42.698;23.298;2023-03-24T00:00:18;95011.47;;;9.02;79.07
6343;BME280;3204;42.698;23.298;2023-03-24T00:02:45;95000.75;;;8.97;79.16
6343;BME280;3204;42.698;23.298;2023-03-24T00:05:18;95007.06;;;8.92;79.48
6343;BME280;3204;42.698;23.298;2023-03-24T00:07:44;95005.84;;;8.85;79.63
6343;BME280;3204;42.698;23.298;2023-03-24T00:10:13;95005.91;;;8.80;79.92
6343;BME280;3204;42.698;23.298;2023-03-24T00:12:40;94997.56;;;8.76;80.31
6343;BME280;3204;42.698;23.298;2023-03-24T00:15:11;95007.28;;;8.77;80.67
6343;BME280;3204;42.698;23.298;2023-03-24T00:17:37;95003.78;;;8.77;80.08
6343;BME280;3204;42.698;23.298;2023-03-24T00:20:06;95004.97;;;8.71;80.59
6343;BME280;3204;42.698;23.298;2023-03-24T00:22:35;95008.56;;;8.66;80.92
6343;BME280;3204;42.698;23.298;2023-03-24T00:25:00;94996.97;;;8.66;80.55
6343;BME280;3204;42.698;23.298;2023-03-24T00:27:29;95003.75;;;8.63;81.52
6343;BME280;3204;42.698;23.298;2023-03-24T00:29:55;94998.13;;;8.60;81.48
6343;BME280;3204;42.698;23.298;2023-03-24T00:32:23;94996.53;;;8.59;80.76
6343;BME280;3204;42.698;23.298;2023-03-24T00:34:49;95005.72;;;8.58;80.72
6343;BME280;3204;42.698;23.298;2023-03-24T00:37:17;95001.19;;;8.53;81.22
6343;BME280;3204;42.698;23.298;2023-03-24T00:39:42;94998.56;;;8.48;81.86
6343;BME280;3204;42.698;23.298;2023-03-24T00:42:08;94989.84;;;8.38;81.96
6343;BME280;3204;42.698;23.298;2023-03-24T00:44:34;94989.47;;;8.44;81.94
6343;BME280;3204;42.698;23.298;2023-03-24T00:47:00;94986.25;;;8.42;81.54
6343;BME280;3204;42.698;23.298;2023-03-24T00:49:27;94991.34;;;8.44;81.95
6343;BME280;3204;42.698;23.298;2023-03-24T00:52:17;94993.63;;;8.37;81.50
6343;BME280;3204;42.698;23.298;2023-03-24T00:54:45;94991.81;;;8.32;82.03
6343;BME280;3204;42.698;23.298;2023-03-24T00:57:12;94987.22;;;8.33;81.97
6343;BME280;3204;42.698;23.298;2023-03-24T00:59:39;94991.81;;;8.32;81.57
6343;BME280;3204;42.698;23.298;2023-03-24T01:02:10;94987.28;;;8.28;81.76
6343;BME280;3204;42.698;23.298;2023-03-24T01:04:38;94983.91;;;8.17;82.47
6343;BME280;3204;42.698;23.298;2023-03-24T01:07:06;94981.69;;;8.19;81.78
6343;BME280;3204;42.698;23.298;2023-03-24T01:09:33;94992.47;;;8.24;81.91
6343;BME280;3204;42.698;23.298;2023-03-24T01:12:01;94982.25;;;8.21;82.06
6343;BME280;3204;42.698;23.298;2023-03-24T01:14:31;94993.78;;;8.27;82.45
6343;BME280;3204;42.698;23.298;2023-03-24T01:16:58;94988.44;;;8.22;82.88
6343;BME280;3204;42.698;23.298;2023-03-24T01:19:24;94989.31;;;8.17;82.76
6343;BME280;3204;42.698;23.298;2023-03-24T01:21:50;94987.25;;;8.09;82.86
6343;BME280;3204;42.698;23.298;2023-03-24T01:24:19;94981.28;;;8.12;83.18
6343;BME280;3204;42.698;23.298;2023-03-24T01:26:44;94982.13;;;8.08;83.29
6343;BME280;3204;42.698;23.298;2023-03-24T01:29:10;94983.31;;;8.02;83.49
6343;BME280;3204;42.698;23.298;2023-03-24T01:31:36;94978.19;;;8.00;83.64
6343;BME280;3204;42.698;23.298;2023-03-24T01:34:02;94978.41;;;8.04;83.10
6343;BME280;3204;42.698;23.298;2023-03-24T01:36:28;94977.84;;;8.07;83.32
6343;BME280;3204;42.698;23.298;2023-03-24T01:38:54;94972.50;;;8.02;83.33
6343;BME280;3204;42.698;23.298;2023-03-24T01:41:22;94976.38;;;7.96;82.86
6343;BME280;3204;42.698;23.298;2023-03-24T01:43:48;94975.16;;;7.88;82.74
6343;BME280;3204;42.698;23.298;2023-03-24T01:46:20;94982.63;;;7.91;82.82
6343;BME280;3204;42.698;23.298;2023-03-24T01:48:50;94976.00;;;7.84;82.53
6343;BME280;3204;42.698;23.298;2023-03-24T01:51:26;94975.63;;;7.72;82.81
6343;BME280;3204;42.698;23.298;2023-03-24T01:54:01;94985.28;;;7.96;83.27
6343;BME280;3204;42.698;23.298;2023-03-24T01:56:30;94981.56;;;7.92;83.56
6343;BME280;3204;42.698;23.298;2023-03-24T01:58:58;94984.13;;;8.02;82.40
6343;BME280;3204;42.698;23.298;2023-03-24T02:01:26;94983.97;;;7.94;83.02
6343;BME280;3204;42.698;23.298;2023-03-24T02:03:54;94982.50;;;7.83;83.24
6343;BME280;3204;42.698;23.298;2023-03-24T02:06:21;94982.00;;;7.81;83.85
6343;BME280;3204;42.698;23.298;2023-03-24T02:08:58;94986.31;;;7.82;83.53
6343;BME280;3204;42.698;23.298;2023-03-24T02:11:27;94991.03;;;7.71;83.54
6343;BME280;3204;42.698;23.298;2023-03-24T02:13:53;94986.38;;;7.77;82.80
6343;BME280;3204;42.698;23.298;2023-03-24T02:42:03;94975.66;;;7.48;83.36
6343;BME280;3204;42.698;23.298;2023-03-24T02:52:49;94952.19;;;7.49;83.50
6343;BME280;3204;42.698;23.298;2023-03-24T02:55:23;94956.41;;;7.55;83.75
6343;BME280;3204;42.698;23.298;2023-03-24T02:58:07;94954.97;;;7.62;82.88
6343;BME280;3204;42.698;23.298;2023-03-24T03:00:45;94948.78;;;7.62;83.11
6343;BME280;3204;42.698;23.298;2023-03-24T03:06:26;94949.28;;;7.64;82.58
6343;BME280;3204;42.698;23.298;2023-03-24T03:08:54;94950.94;;;7.60;82.37
6343;BME280;3204;42.698;23.298;2023-03-24T03:11:21;94947.69;;;7.63;82.19
6343;BME280;3204;42.698;23.298;2023-03-24T03:14:03;94948.78;;;7.62;81.91
6343;BME280;3204;42.698;23.298;2023-03-24T03:16:37;94951.31;;;7.53;82.12
6343;BME280;3204;42.698;23.298;2023-03-24T03:19:13;94952.06;;;7.59;82.14
6343;BME280;3204;42.698;23.298;2023-03-24T03:21:43;94951.03;;;7.55;82.31
6343;BME280;3204;42.698;23.298;2023-03-24T03:24:39;94961.53;;;7.56;82.47
6343;BME280;3204;42.698;23.298;2023-03-24T03:27:14;94957.44;;;7.59;82.06
6343;BME280;3204;42.698;23.298;2023-03-24T03:29:45;94951.03;;;7.55;82.09
6343;BME280;3204;42.698;23.298;2023-03-24T03:32:19;94951.56;;;7.57;82.48
6343;BME280;3204;42.698;23.298;2023-03-24T03:34:55;94940.44;;;7.58;81.65
6343;BME280;3204;42.698;23.298;2023-03-24T03:37:31;94946.16;;;7.57;82.03
6343;BME280;3204;42.698;23.298;2023-03-24T03:40:07;94942.91;;;7.55;82.15
6343;BME280;3204;42.698;23.298;2023-03-24T03:42:34;94942.84;;;7.60;81.57
6343;BME280;3204;42.698;23.298;2023-03-24T03:45:00;94945.00;;;7.63;81.29
6343;BME280;3204;42.698;23.298;2023-03-24T03:47:25;94932.66;;;7.57;81.50
6343;BME280;3204;42.698;23.298;2023-03-24T03:49:51;94947.16;;;7.61;81.46
6343;BME280;3204;42.698;23.298;2023-03-24T03:52:17;94957.38;;;7.64;81.40
6343;BME280;3204;42.698;23.298;2023-03-24T03:54:43;94964.97;;;7.80;81.78
6343;BME280;3204;42.698;23.298;2023-03-24T03:57:11;94964.16;;;7.80;81.68
6343;BME280;3204;42.698;23.298;2023-03-24T03:59:38;94959.44;;;7.72;82.92
6343;BME280;3204;42.698;23.298;2023-03-24T04:07:31;94956.34;;;7.60;82.11
6343;BME280;3204;42.698;23.298;2023-03-24T04:13:00;94966.28;;;7.64;82.27
6343;BME280;3204;42.698;23.298;2023-03-24T04:15:48;94964.72;;;7.58;82.47
6343;BME280;3204;42.698;23.298;2023-03-24T04:21:26;94968.88;;;7.51;82.95
6343;BME280;3204;42.698;23.298;2023-03-24T04:24:07;94974.63;;;7.44;82.20
6343;BME280;3204;42.698;23.298;2023-03-24T04:29:21;94965.59;;;7.35;82.88
6343;BME280;3204;42.698;23.298;2023-03-24T04:32:15;94952.03;;;7.17;83.38
6343;BME280;3204;42.698;23.298;2023-03-24T04:34:54;94966.03;;;7.19;84.33
6343;BME280;3204;42.698;23.298;2023-03-24T04:37:28;94969.59;;;7.14;84.29
6343;BME280;3204;42.698;23.298;2023-03-24T04:39:58;94974.06;;;7.24;84.79
6343;BME280;3204;42.698;23.298;2023-03-24T04:42:31;94969.59;;;7.38;84.65
6343;BME280;3204;42.698;23.298;2023-03-24T04:44:59;94983.13;;;7.56;85.44
6343;BME280;3204;42.698;23.298;2023-03-24T04:47:28;94983.38;;;7.36;86.49
6343;BME280;3204;42.698;23.298;2023-03-24T04:50:05;94983.66;;;7.35;87.01
6343;BME280;3204;42.698;23.298;2023-03-24T04:52:33;94989.66;;;7.27;87.82
6343;BME280;3204;42.698;23.298;2023-03-24T04:54:58;94998.63;;;7.22;88.43
6343;BME280;3204;42.698;23.298;2023-03-24T04:57:26;94994.50;;;7.30;88.05
6343;BME280;3204;42.698;23.298;2023-03-24T04:59:51;94998.75;;;7.36;88.41
6343;BME280;3204;42.698;23.298;2023-03-24T05:02:16;95000.47;;;7.50;87.55
6343;BME280;3204;42.698;23.298;2023-03-24T05:04:42;94996.09;;;7.31;88.03
6343;BME280;3204;42.698;23.298;2023-03-24T05:07:07;95004.94;;;7.36;87.88
6343;BME280;3204;42.698;23.298;2023-03-24T05:09:33;95003.63;;;7.34;88.55
6343;BME280;3204;42.698;23.298;2023-03-24T05:11:59;95003.50;;;7.44;87.82
6343;BME280;3204;42.698;23.298;2023-03-24T05:14:24;95011.25;;;7.50;87.64
6343;BME280;3204;42.698;23.298;2023-03-24T05:16:50;95001.84;;;7.48;87.47
6343;BME280;3204;42.698;23.298;2023-03-24T05:19:15;95007.97;;;7.53;87.20
6343;BME280;3204;42.698;23.298;2023-03-24T05:21:41;95008.44;;;7.60;87.49
6343;BME280;3204;42.698;23.298;2023-03-24T05:24:07;95017.50;;;7.69;86.90
6343;BME280;3204;42.698;23.298;2023-03-24T05:26:32;95015.03;;;7.73;87.06
6343;BME280;3204;42.698;23.298;2023-03-24T05:28:58;95006.28;;;7.81;86.75
6343;BME280;3204;42.698;23.298;2023-03-24T05:31:24;95013.72;;;7.89;86.91
6343;BME280;3204;42.698;23.298;2023-03-24T05:33:50;95014.91;;;7.83;86.84
6343;BME280;3204;42.698;23.298;2023-03-24T05:36:15;95013.97;;;7.92;86.75
6343;BME280;3204;42.698;23.298;2023-03-24T05:38:41;95018.41;;;8.02;86.25
6343;BME280;3204;42.698;23.298;2023-03-24T05:41:07;95015.28;;;8.13;85.50
6343;BME280;3204;42.698;23.298;2023-03-24T05:43:32;95020.34;;;8.20;85.22
6343;BME280;3204;42.698;23.298;2023-03-24T05:45:58;95020.88;;;8.40;84.87
6343;BME280;3204;42.698;23.298;2023-03-24T05:48:25;95023.28;;;8.42;84.55
6343;BME280;3204;42.698;23.298;2023-03-24T05:50:51;95011.00;;;8.49;85.03
6343;BME280;3204;42.698;23.298;2023-03-24T05:53:16;95013.19;;;8.66;84.76
6343;BME280;3204;42.698;23.298;2023-03-24T05:55:44;95017.41;;;8.72;84.90
6343;BME280;3204;42.698;23.298;2023-03-24T05:58:09;95025.16;;;8.92;84.48
6343;BME280;3204;42.698;23.298;2023-03-24T06:00:36;95021.22;;;9.16;83.60
6343;BME280;3204;42.698;23.298;2023-03-24T06:03:02;95022.97;;;9.53;82.48
6343;BME280;3204;42.698;23.298;2023-03-24T06:05:28;95025.78;;;9.75;81.17
6343;BME280;3204;42.698;23.298;2023-03-24T06:07:54;95016.13;;;9.96;80.55
6343;BME280;3204;42.698;23.298;2023-03-24T06:10:23;95022.56;;;10.00;78.78
6343;BME280;3204;42.698;23.298;2023-03-24T06:12:50;95019.25;;;10.16;78.88
6343;BME280;3204;42.698;23.298;2023-03-24T06:15:16;95031.25;;;10.37;77.62
6343;BME280;3204;42.698;23.298;2023-03-24T06:17:42;95031.34;;;10.32;76.94
6343;BME280;3204;42.698;23.298;2023-03-24T06:20:09;95027.53;;;10.33;77.32
6343;BME280;3204;42.698;23.298;2023-03-24T06:22:40;95028.69;;;10.54;76.57
6343;BME280;3204;42.698;23.298;2023-03-24T06:25:07;95036.06;;;10.76;76.05
6343;BME280;3204;42.698;23.298;2023-03-24T06:27:34;95029.03;;;10.75;75.44
6343;BME280;3204;42.698;23.298;2023-03-24T06:30:00;95028.16;;;10.88;74.82
6343;BME280;3204;42.698;23.298;2023-03-24T06:32:26;95032.16;;;10.90;75.23
6343;BME280;3204;42.698;23.298;2023-03-24T06:34:52;95038.25;;;10.74;74.75
6343;BME280;3204;42.698;23.298;2023-03-24T06:37:18;95037.41;;;10.87;74.29
6343;BME280;3204;42.698;23.298;2023-03-24T06:39:45;95034.78;;;11.26;74.13
6343;BME280;3204;42.698;23.298;2023-03-24T06:42:11;95034.34;;;11.32;72.56
6343;BME280;3204;42.698;23.298;2023-03-24T06:44:36;95039.91;;;11.80;72.52
6343;BME280;3204;42.698;23.298;2023-03-24T06:47:03;95038.84;;;11.98;70.94
6343;BME280;3204;42.698;23.298;2023-03-24T06:49:28;95039.16;;;11.96;70.60
6343;BME280;3204;42.698;23.298;2023-03-24T06:51:54;95034.16;;;12.63;69.66
6343;BME280;3204;42.698;23.298;2023-03-24T06:54:19;95026.31;;;12.53;68.84
6343;BME280;3204;42.698;23.298;2023-03-24T06:56:46;95036.38;;;12.44;68.97
6343;BME280;3204;42.698;23.298;2023-03-24T06:59:12;95034.97;;;12.55;69.81
6343;BME280;3204;42.698;23.298;2023-03-24T07:01:37;95037.50;;;12.43;69.82
6343;BME280;3204;42.698;23.298;2023-03-24T07:04:04;95044.28;;;11.98;70.57
6343;BME280;3204;42.698;23.298;2023-03-24T07:06:30;95032.38;;;11.85;71.62
6343;BME280;3204;42.698;23.298;2023-03-24T07:08:56;95047.19;;;12.10;71.44
6343;BME280;3204;42.698;23.298;2023-03-24T07:11:22;95050.53;;;12.07;70.63
6343;BME280;3204;42.698;23.298;2023-03-24T07:13:48;95040.72;;;12.45;69.80
6343;BME280;3204;42.698;23.298;2023-03-24T07:16:14;95052.41;;;12.62;68.77
6343;BME280;3204;42.698;23.298;2023-03-24T07:18:40;95050.00;;;12.78;68.44
6343;BME280;3204;42.698;23.298;2023-03-24T07:21:05;95053.53;;;12.61;69.15
6343;BME280;3204;42.698;23.298;2023-03-24T07:23:31;95064.47;;;13.21;68.02
6343;BME280;3204;42.698;23.298;2023-03-24T07:25:57;95049.16;;;14.00;66.44
6343;BME280;3204;42.698;23.298;2023-03-24T07:28:26;95056.66;;;14.49;64.86
6343;BME280;3204;42.698;23.298;2023-03-24T07:30:51;95051.56;;;14.39;64.33
6343;BME280;3204;42.698;23.298;2023-03-24T07:33:17;95051.81;;;13.88;65.27
6343;BME280;3204;42.698;23.298;2023-03-24T07:35:42;95051.13;;;13.36;66.78
6343;BME280;3204;42.698;23.298;2023-03-24T07:38:08;95050.00;;;13.46;66.67
6343;BME280;3204;42.698;23.298;2023-03-24T07:40:34;95043.00;;;14.20;64.49
6343;BME280;3204;42.698;23.298;2023-03-24T07:43:01;95045.22;;;14.96;63.78
6343;BME280;3204;42.698;23.298;2023-03-24T07:45:29;95051.44;;;15.58;62.48
6343;BME280;3204;42.698;23.298;2023-03-24T07:47:55;95043.09;;;15.99;60.99
6343;BME280;3204;42.698;23.298;2023-03-24T07:50:26;95041.31;;;16.27;59.85
6343;BME280;3204;42.698;23.298;2023-03-24T07:52:52;95042.66;;;16.33;59.43
6343;BME280;3204;42.698;23.298;2023-03-24T07:55:17;95038.69;;;16.55;58.32
6343;BME280;3204;42.698;23.298;2023-03-24T07:57:47;95039.34;;;16.28;58.86
6343;BME280;3204;42.698;23.298;2023-03-24T08:00:13;95035.38;;;15.57;60.33
6343;BME280;3204;42.698;23.298;2023-03-24T08:02:50;95034.63;;;15.36;61.20
6343;BME280;3204;42.698;23.298;2023-03-24T08:05:19;95024.66;;;15.31;61.31
6343;BME280;3204;42.698;23.298;2023-03-24T08:07:49;95021.41;;;15.82;59.86
6343;BME280;3204;42.698;23.298;2023-03-24T08:10:19;95024.41;;;16.13;59.09
6343;BME280;3204;42.698;23.298;2023-03-24T08:12:45;95013.09;;;15.79;59.60
6343;BME280;3204;42.698;23.298;2023-03-24T08:15:11;95016.00;;;16.42;58.68
6343;BME280;3204;42.698;23.298;2023-03-24T08:17:37;95020.34;;;16.56;57.46
6343;BME280;3204;42.698;23.298;2023-03-24T08:20:04;95018.03;;;16.33;57.88
6343;BME280;3204;42.698;23.298;2023-03-24T08:22:34;95008.78;;;17.14;56.74
6343;BME280;3204;42.698;23.298;2023-03-24T08:25:00;95014.84;;;17.35;55.10
6343;BME280;3204;42.698;23.298;2023-03-24T08:27:25;95006.22;;;17.76;54.59
6343;BME280;3204;42.698;23.298;2023-03-24T08:29:50;95003.47;;;18.22;53.98
6343;BME280;3204;42.698;23.298;2023-03-24T08:32:16;95008.50;;;17.58;54.70
6343;BME280;3204;42.698;23.298;2023-03-24T08:34:41;95003.97;;;17.11;55.38
6343;BME280;3204;42.698;23.298;2023-03-24T08:37:07;95001.88;;;17.20;55.69
6343;BME280;3204;42.698;23.298;2023-03-24T08:39:33;94989.41;;;17.22;54.88
6343;BME280;3204;42.698;23.298;2023-03-24T08:42:00;94990.41;;;17.02;55.20
6343;BME280;3204;42.698;23.298;2023-03-24T08:44:26;94990.56;;;17.21;55.93
6343;BME280;3204;42.698;23.298;2023-03-24T08:46:51;94988.59;;;17.06;56.05
6343;BME280;3204;42.698;23.298;2023-03-24T08:49:17;94984.09;;;16.86;56.20
6343;BME280;3204;42.698;23.298;2023-03-24T08:51:43;94983.69;;;17.00;55.52
6343;BME280;3204;42.698;23.298;2023-03-24T08:54:09;94975.91;;;16.74;56.18
6343;BME280;3204;42.698;23.298;2023-03-24T08:56:37;94982.09;;;17.26;54.75
6343;BME280;3204;42.698;23.298;2023-03-24T08:59:03;94972.00;;;17.42;54.23
6343;BME280;3204;42.698;23.298;2023-03-24T09:01:29;94960.69;;;17.59;53.75
6343;BME280;3204;42.698;23.298;2023-03-24T09:03:55;94963.63;;;18.13;52.97
6343;BME280;3204;42.698;23.298;2023-03-24T09:06:21;94962.03;;;19.15;51.88
6343;BME280;3204;42.698;23.298;2023-03-24T09:08:47;94964.19;;;19.63;50.26
6343;BME280;3204;42.698;23.298;2023-03-24T09:11:15;94959.69;;;18.79;51.44
6343;BME280;3204;42.698;23.298;2023-03-24T09:13:41;94958.75;;;18.72;52.74
6343;BME280;3204;42.698;23.298;2023-03-24T09:16:07;94953.38;;;19.96;50.31
6343;BME280;3204;42.698;23.298;2023-03-24T09:18:33;94953.03;;;20.72;48.53
6343;BME280;3204;42.698;23.298;2023-03-24T09:20:58;94949.22;;;19.83;48.50
6343;BME280;3204;42.698;23.298;2023-03-24T09:23:23;94948.94;;;19.47;48.65
6343;BME280;3204;42.698;23.298;2023-03-24T09:25:52;94946.13;;;19.43;48.96
6343;BME280;3204;42.698;23.298;2023-03-24T09:28:18;94938.75;;;19.47;49.85
6343;BME280;3204;42.698;23.298;2023-03-24T09:30:44;94936.13;;;19.16;49.86
6343;BME280;3204;42.698;23.298;2023-03-24T09:33:10;94930.56;;;19.73;48.86
6343;BME280;3204;42.698;23.298;2023-03-24T09:35:35;94931.47;;;19.58;48.61
6343;BME280;3204;42.698;23.298;2023-03-24T09:38:01;94924.44;;;20.28;48.25
6343;BME280;3204;42.698;23.298;2023-03-24T09:40:29;94920.84;;;21.06;46.78
6343;BME280;3204;42.698;23.298;2023-03-24T09:43:11;94921.13;;;22.07;44.59
6343;BME280;3204;42.698;23.298;2023-03-24T09:45:48;94918.84;;;21.76;45.22
6343;BME280;3204;42.698;23.298;2023-03-24T09:48:20;94917.50;;;21.96;45.84
6343;BME280;3204;42.698;23.298;2023-03-24T09:50:56;94916.09;;;22.19;44.00
6343;BME280;3204;42.698;23.298;2023-03-24T09:53:44;94912.88;;;22.14;44.24
6343;BME280;3204;42.698;23.298;2023-03-24T09:56:16;94904.63;;;22.68;42.92
6343;BME280;3204;42.698;23.298;2023-03-24T09:58:46;94904.53;;;22.54;43.42
6343;BME280;3204;42.698;23.298;2023-03-24T10:01:14;94901.75;;;23.22;42.46
6343;BME280;3204;42.698;23.298;2023-03-24T10:03:42;94901.13;;;23.88;41.01
6343;BME280;3204;42.698;23.298;2023-03-24T10:06:25;94901.97;;;24.02;40.18
6343;BME280;3204;42.698;23.298;2023-03-24T10:09:27;94890.16;;;22.34;41.87
6343;BME280;3204;42.698;23.298;2023-03-24T10:12:24;94888.47;;;21.72;42.40
6343;BME280;3204;42.698;23.298;2023-03-24T10:20:50;94884.72;;;21.58;42.96
6343;BME280;3204;42.698;23.298;2023-03-24T10:31:49;94873.56;;;22.34;41.83
6343;BME280;3204;42.698;23.298;2023-03-24T10:34:16;94880.56;;;22.79;41.29
6343;BME280;3204;42.698;23.298;2023-03-24T10:36:41;94876.19;;;21.70;43.22
6343;BME280;3204;42.698;23.298;2023-03-24T10:39:14;94865.94;;;21.34;41.92
6343;BME280;3204;42.698;23.298;2023-03-24T10:41:41;94865.44;;;21.61;42.84
6343;BME280;3204;42.698;23.298;2023-03-24T10:44:07;94861.28;;;22.93;41.07
6343;BME280;3204;42.698;23.298;2023-03-24T10:46:37;94865.00;;;21.96;40.77
6343;BME280;3204;42.698;23.298;2023-03-24T10:49:13;94862.72;;;22.62;40.39
6343;BME280;3204;42.698;23.298;2023-03-24T10:51:43;94859.56;;;22.64;40.46
6343;BME280;3204;42.698;23.298;2023-03-24T10:54:19;94868.16;;;22.45;40.08
6343;BME280;3204;42.698;23.298;2023-03-24T10:59:38;94852.34;;;23.38;39.26
6343;BME280;3204;42.698;23.298;2023-03-24T11:02:20;94856.31;;;23.40;38.70
6343;BME280;3204;42.698;23.298;2023-03-24T11:07:37;94854.44;;;24.11;37.38
6343;BME280;3204;42.698;23.298;2023-03-24T11:12:37;94847.66;;;24.57;34.16
6343;BME280;3204;42.698;23.298;2023-03-24T11:15:18;94837.75;;;24.70;34.37
6343;BME280;3204;42.698;23.298;2023-03-24T11:17:46;94839.31;;;23.31;36.24
6343;BME280;3204;42.698;23.298;2023-03-24T11:20:27;94833.13;;;22.12;38.18
6343;BME280;3204;42.698;23.298;2023-03-24T11:22:58;94820.44;;;21.57;37.10
6343;BME280;3204;42.698;23.298;2023-03-24T11:25:34;94821.47;;;21.82;36.55
6343;BME280;3204;42.698;23.298;2023-03-24T11:28:04;94814.75;;;21.83;36.54
6343;BME280;3204;42.698;23.298;2023-03-24T11:30:46;94807.66;;;22.36;35.82
6343;BME280;3204;42.698;23.298;2023-03-24T11:33:29;94804.44;;;21.73;35.00
6343;BME280;3204;42.698;23.298;2023-03-24T11:36:00;94801.09;;;22.01;35.37
6343;BME280;3204;42.698;23.298;2023-03-24T11:38:31;94804.22;;;21.96;34.73
6343;BME280;3204;42.698;23.298;2023-03-24T11:40:59;94793.28;;;22.13;34.94
6343;BME280;3204;42.698;23.298;2023-03-24T11:43:27;94795.72;;;22.25;33.90
6343;BME280;3204;42.698;23.298;2023-03-24T11:46:21;94793.22;;;22.71;33.19
6343;BME280;3204;42.698;23.298;2023-03-24T11:48:54;94790.66;;;23.37;32.59
6343;BME280;3204;42.698;23.298;2023-03-24T11:51:29;94790.25;;;23.32;31.78
6343;BME280;3204;42.698;23.298;2023-03-24T11:53:58;94781.16;;;23.28;32.24
6343;BME280;3204;42.698;23.298;2023-03-24T11:56:39;94781.56;;;23.68;31.58
6343;BME280;3204;42.698;23.298;2023-03-24T11:59:26;94772.88;;;24.01;31.29
6343;BME280;3204;42.698;23.298;2023-03-24T12:08:00;94761.81;;;23.77;30.26
6343;BME280;3204;42.698;23.298;2023-03-24T12:13:09;94758.66;;;23.64;29.70
6343;BME280;3204;42.698;23.298;2023-03-24T12:16:20;94753.03;;;23.15;29.89
6343;BME280;3204;42.698;23.298;2023-03-24T12:18:44;94748.31;;;23.40;30.19
6343;BME280;3204;42.698;23.298;2023-03-24T12:24:03;94740.44;;;23.70;29.03
6343;BME280;3204;42.698;23.298;2023-03-24T12:26:33;94735.66;;;23.85;28.83
6343;BME280;3204;42.698;23.298;2023-03-24T12:42:22;94710.00;;;24.88;27.22
6343;BME280;3204;42.698;23.298;2023-03-24T12:45:03;94713.88;;;25.04;27.32
6343;BME280;3204;42.698;23.298;2023-03-24T12:50:34;94696.84;;;24.99;27.26
6343;BME280;3204;42.698;23.298;2023-03-24T12:55:44;94700.72;;;26.10;25.31
6343;BME280;3204;42.698;23.298;2023-03-24T12:58:22;94694.69;;;26.52;24.69
6343;BME280;3204;42.698;23.298;2023-03-24T13:00:59;94699.63;;;26.75;24.67
6343;BME280;3204;42.698;23.298;2023-03-24T13:03:34;94694.91;;;26.68;24.90
6343;BME280;3204;42.698;23.298;2023-03-24T13:06:12;94694.69;;;26.52;24.95
6343;BME280;3204;42.698;23.298;2023-03-24T13:08:39;94689.00;;;26.29;25.41
6343;BME280;3204;42.698;23.298;2023-03-24T13:11:10;94685.75;;;25.53;25.78
6343;BME280;3204;42.698;23.298;2023-03-24T13:13:40;94679.13;;;24.86;26.35
6343;BME280;3204;42.698;23.298;2023-03-24T13:16:17;94676.84;;;24.56;27.17
6343;BME280;3204;42.698;23.298;2023-03-24T13:18:56;94661.16;;;24.29;27.64
6343;BME280;3204;42.698;23.298;2023-03-24T13:21:24;94669.97;;;23.75;28.17
6343;BME280;3204;42.698;23.298;2023-03-24T13:24:02;94667.63;;;23.56;28.35
6343;BME280;3204;42.698;23.298;2023-03-24T13:31:32;94659.75;;;23.37;27.63
6343;BME280;3204;42.698;23.298;2023-03-24T13:34:02;94647.88;;;23.19;28.01
6343;BME280;3204;42.698;23.298;2023-03-24T13:36:45;94656.94;;;22.84;28.23
6343;BME280;3204;42.698;23.298;2023-03-24T13:39:15;94649.41;;;22.74;27.87
6343;BME280;3204;42.698;23.298;2023-03-24T13:41:47;94651.00;;;22.72;27.80
6343;BME280;3204;42.698;23.298;2023-03-24T13:44:18;94644.69;;;22.82;27.70
6343;BME280;3204;42.698;23.298;2023-03-24T13:49:24;94640.34;;;22.84;28.18
6343;BME280;3204;42.698;23.298;2023-03-24T13:51:50;94641.53;;;22.90;28.14
6343;BME280;3204;42.698;23.298;2023-03-24T13:54:25;94637.56;;;22.84;28.20
6343;BME280;3204;42.698;23.298;2023-03-24T13:57:02;94638.38;;;22.88;28.29
6343;BME280;3204;42.698;23.298;2023-03-24T13:59:30;94626.91;;;23.07;28.50
6343;BME280;3204;42.698;23.298;2023-03-24T14:05:29;94624.13;;;23.56;27.52
6343;BME280;3204;42.698;23.298;2023-03-24T14:10:47;94617.69;;;23.87;27.09
6343;BME280;3204;42.698;23.298;2023-03-24T14:15:56;94616.84;;;24.15;26.65
6343;BME280;3204;42.698;23.298;2023-03-24T14:21:00;94605.97;;;24.48;26.06
6343;BME280;3204;42.698;23.298;2023-03-24T14:23:40;94612.81;;;24.30;26.52
6343;BME280;3204;42.698;23.298;2023-03-24T14:26:12;94610.38;;;24.39;26.86
6343;BME280;3204;42.698;23.298;2023-03-24T14:28:40;94606.44;;;24.36;26.16
6343;BME280;3204;42.698;23.298;2023-03-24T14:33:57;94605.72;;;24.22;26.35
6343;BME280;3204;42.698;23.298;2023-03-24T14:36:43;94608.56;;;24.04;26.68
6343;BME280;3204;42.698;23.298;2023-03-24T14:39:25;94607.47;;;23.70;26.21
6343;BME280;3204;42.698;23.298;2023-03-24T14:41:52;94608.72;;;23.31;27.05
6343;BME280;3204;42.698;23.298;2023-03-24T14:47:25;94599.63;;;22.81;26.44
6343;BME280;3204;42.698;23.298;2023-03-24T14:49:52;94601.59;;;22.70;26.84
6343;BME280;3204;42.698;23.298;2023-03-24T14:52:31;94601.19;;;22.61;27.15
6343;BME280;3204;42.698;23.298;2023-03-24T14:55:03;94597.22;;;22.52;27.58
6343;BME280;3204;42.698;23.298;2023-03-24T14:57:51;94597.22;;;22.45;27.54
6343;BME280;3204;42.698;23.298;2023-03-24T15:00:21;94595.97;;;22.35;27.24
6343;BME280;3204;42.698;23.298;2023-03-24T15:03:09;94586.78;;;21.96;28.73
6343;BME280;3204;42.698;23.298;2023-03-24T15:05:35;94598.59;;;21.93;28.23
6343;BME280;3204;42.698;23.298;2023-03-24T15:08:22;94591.34;;;21.64;28.18
6343;BME280;3204;42.698;23.298;2023-03-24T15:11:05;94590.13;;;21.55;28.48
6343;BME280;3204;42.698;23.298;2023-03-24T15:13:50;94588.56;;;21.54;27.93
6343;BME280;3204;42.698;23.298;2023-03-24T15:16:20;94588.47;;;21.43;28.44
6343;BME280;3204;42.698;23.298;2023-03-24T15:21:38;94586.53;;;21.47;28.22
6343;BME280;3204;42.698;23.298;2023-03-24T15:26:53;94595.94;;;21.39;28.85
6343;BME280;3204;42.698;23.298;2023-03-24T15:29:18;94588.78;;;21.31;28.91
6343;BME280;3204;42.698;23.298;2023-03-24T15:31:44;94587.22;;;21.30;28.63
6343;BME280;3204;42.698;23.298;2023-03-24T15:34:45;94591.16;;;21.29;28.71
6343;BME280;3204;42.698;23.298;2023-03-24T15:37:35;94580.16;;;21.36;29.17
6343;BME280;3204;42.698;23.298;2023-03-24T15:40:03;94592.72;;;21.30;29.54
6343;BME280;3204;42.698;23.298;2023-03-24T15:42:39;94586.47;;;21.33;29.42
6343;BME280;3204;42.698;23.298;2023-03-24T15:45:10;94584.09;;;21.39;28.98